John Quigg — WDB9828 — position and weather

sailwx.info

Track history (hours):
 
Tides and Currents Weather Stations Pressure Air Temp Water Temp Dewpoint Dewpoint Depression Visibility Wind Speed Wind Dir Waves Ship Positions

John Quigg

Owner: Harley Marine Services, Inc, Seattle, WA. More information available from US FCC via Universal Licensing System and Coast Guard Vessel Documentation Center.

Last reported at 2014-Nov-24 11:33 UTC. Time now 2014-Nov-24 12:20 UTC.
Position N 33°44' W 118°16'.

MMSI: 365934954.

Date/timePositionNaut miles runAvg speedWind from/ knotsBaromVisibWave heightAir tempDewpointWater temp
2014-Nov-24 11:33N 33°44' W 118°16'2 0.2
2014-Nov-24 00:34N 33°46' W 118°16'1 0.9
2014-Nov-23 23:33N 33°46' W 118°15'2 1.5
2014-Nov-23 22:33N 33°45' W 118°13'0 0.0
2014-Nov-23 21:34N 33°45' W 118°13'0 0.0
2014-Nov-23 20:34N 33°45' W 118°13'1 0.9
2014-Nov-23 19:29N 33°44' W 118°13'2 2.3
2014-Nov-23 18:33N 33°46' W 118°13'1 0.5
2014-Nov-23 16:33N 33°45' W 118°13'1 0.8
2014-Nov-23 15:32N 33°46' W 118°13'1 1.1
2014-Nov-23 14:33N 33°46' W 118°15'1 0.1
2014-Nov-23 05:26N 33°46' W 118°13'1 0.6
2014-Nov-23 04:32N 33°46' W 118°13'3 2.4
2014-Nov-23 03:09N 33°44' W 118°11'0 0.6
2014-Nov-23 02:27N 33°44' W 118°11'1 1.1
2014-Nov-23 01:33N 33°44' W 118°12'1 1.0
2014-Nov-23 00:34N 33°43' W 118°11'1 1.0
2014-Nov-22 23:31N 33°44' W 118°12'1 0.6
2014-Nov-22 22:33N 33°44' W 118°11'2 1.3
2014-Nov-22 21:08N 33°45' W 118°13'0 0.3
2014-Nov-22 20:32N 33°45' W 118°13'0 0.1
2014-Nov-22 19:33N 33°45' W 118°13'1 0.2
2014-Nov-22 15:33N 33°46' W 118°13'1 1.0
2014-Nov-22 14:33N 33°45' W 118°13'0 0.1
2014-Nov-22 11:24N 33°45' W 118°13'0 0.0
2014-Nov-21 21:22N 33°45' W 118°13'1 0.9
2014-Nov-21 20:33N 33°45' W 118°13'4 1.3
2014-Nov-21 17:33N 33°44' W 118°08'0 0.2
2014-Nov-21 16:28N 33°44' W 118°08'4 3.9
2014-Nov-21 15:22N 33°45' W 118°13'0 0.5
2014-Nov-21 14:33N 33°46' W 118°13'0 0.0
2014-Nov-21 04:09N 33°46' W 118°13'1 2.3
2014-Nov-21 03:32N 33°44' W 118°13'1 0.4
2014-Nov-21 00:25N 33°45' W 118°13'1 0.9
2014-Nov-20 23:17N 33°46' W 118°13'2 2.2
2014-Nov-20 22:33N 33°45' W 118°13'0 0.2
2014-Nov-20 20:33N 33°44' W 118°12'1 1.2
2014-Nov-20 19:32N 33°45' W 118°11'5 1.1
2014-Nov-20 15:32N 33°46' W 118°17'3 1.4
2014-Nov-20 13:28N 33°45' W 118°13'0 0.1
2014-Nov-20 12:33N 33°45' W 118°13'3 0.4
2014-Nov-20 06:33N 33°44' W 118°16'0 0.0
2014-Nov-20 05:16N 33°44' W 118°16'0 0.0
2014-Nov-20 03:29N 33°44' W 118°16'0 0.3
2014-Nov-20 02:33N 33°44' W 118°16'2 2.0
2014-Nov-20 01:33N 33°46' W 118°16'0 0.0
2014-Nov-20 00:32N 33°46' W 118°16'1 1.1
2014-Nov-19 23:30N 33°45' W 118°17'0 0.3
2014-Nov-19 22:33N 33°45' W 118°17'1 1.0
2014-Nov-19 21:33N 33°44' W 118°16'3 0.7
2014-Nov-19 17:33N 33°45' W 118°13'0 0.0
2014-Nov-19 16:12N 33°45' W 118°13'0 0.2
2014-Nov-19 13:31N 33°45' W 118°13'2 0.8
2014-Nov-19 10:33N 33°44' W 118°16'0 0.0
2014-Nov-19 09:33N 33°44' W 118°16'3 2.9
2014-Nov-19 08:34N 33°45' W 118°12'3 2.7
2014-Nov-19 07:31N 33°44' W 118°16'0 0.0
2014-Nov-19 06:34N 33°44' W 118°16'0 0.0
2014-Nov-19 05:23N 33°44' W 118°16'0 0.0
2014-Nov-19 04:33N 33°44' W 118°16'3 2.8
2014-Nov-19 03:32N 33°45' W 118°12'3 3.1
2014-Nov-19 02:33N 33°44' W 118°16'0 0.0
2014-Nov-19 01:33N 33°44' W 118°16'0 0.0
2014-Nov-19 00:34N 33°44' W 118°16'2 2.0
2014-Nov-18 23:34N 33°46' W 118°17'3 3.2
2014-Nov-18 22:33N 33°43' W 118°15'3 1.6
2014-Nov-18 20:28N 33°46' W 118°13'4 3.7
2014-Nov-18 19:31N 33°43' W 118°16'2 2.1
2014-Nov-18 18:33N 33°45' W 118°16'1 1.2
2014-Nov-18 17:31N 33°44' W 118°16'0 0.0
2014-Nov-18 16:33N 33°44' W 118°16'2 1.7
2014-Nov-18 15:32N 33°46' W 118°15'0 0.1
2014-Nov-18 14:23N 33°46' W 118°16'0 0.1
2014-Nov-18 13:33N 33°46' W 118°15'3 2.4
2014-Nov-18 12:18N 33°43' W 118°15'2 3.0
2014-Nov-18 11:33N 33°44' W 118°17'3 3.2
2014-Nov-18 10:33N 33°46' W 118°14'3 3.2
2014-Nov-18 09:32N 33°43' W 118°16'0 0.2
2014-Nov-18 07:18N 33°44' W 118°16'0 0.0
2014-Nov-18 06:14N 33°44' W 118°16'0 0.0
2014-Nov-18 05:33N 33°44' W 118°16'0 0.0
2014-Nov-18 04:33N 33°44' W 118°16'3 2.8
2014-Nov-18 03:33N 33°44' W 118°12'3 2.9
2014-Nov-18 02:34N 33°44' W 118°16'2 1.9
2014-Nov-18 01:32N 33°46' W 118°17'2 1.3
2014-Nov-18 00:04N 33°44' W 118°16'0 0.8
2014-Nov-17 23:33N 33°44' W 118°15'1 0.3
2014-Nov-17 21:30N 33°44' W 118°16'2 0.1
2014-Nov-16 12:05N 33°45' W 118°16'5 0.4
2014-Nov-15 23:32N 33°45' W 118°11'0 0.3
2014-Nov-15 22:11N 33°45' W 118°11'2 3.2
2014-Nov-15 21:33N 33°46' W 118°13'0 0.0
2014-Nov-15 20:33N 33°46' W 118°13'0 0.3
2014-Nov-15 19:34N 33°46' W 118°13'0 0.0
2014-Nov-15 03:33N 33°46' W 118°13'4 1.9
2014-Nov-15 01:28N 33°44' W 118°09'3 3.1
2014-Nov-15 00:33N 33°45' W 118°12'2 1.7
2014-Nov-14 23:33N 33°44' W 118°11'4 4.0
2014-Nov-14 22:32N 33°44' W 118°06'1 0.8
2014-Nov-14 21:32N 33°44' W 118°07'5 1.0
2014-Nov-14 16:31N 33°45' W 118°13'3 1.9
2014-Nov-14 15:08N 33°45' W 118°16'1 1.6
2014-Nov-14 14:33N 33°46' W 118°15'2 1.0
2014-Nov-14 12:33N 33°45' W 118°13'0 0.2
2014-Nov-14 11:34N 33°45' W 118°13'  
Track history (hours):
 
Tides and Currents Weather Stations Pressure Air Temp Water Temp Dewpoint Dewpoint Depression Visibility Wind Speed Wind Dir Waves Ship Positions

John Quigg

Owner: Harley Marine Services, Inc, Seattle, WA. More information available from US FCC via Universal Licensing System and Coast Guard Vessel Documentation Center.

Last reported at 2014-Nov-24 11:33 UTC. Time now 2014-Nov-24 12:20 UTC.
Position N 33°44' W 118°16'.

MMSI: 365934954.

Date/timePositionNaut miles runAvg speedWind from/ knotsBaromVisibWave heightAir tempDewpointWater temp
2014-Nov-24 11:33N 33°44' W 118°16'2 0.2
2014-Nov-24 00:34N 33°46' W 118°16'1 0.9
2014-Nov-23 23:33N 33°46' W 118°15'2 1.5
2014-Nov-23 22:33N 33°45' W 118°13'0 0.0
2014-Nov-23 21:34N 33°45' W 118°13'0 0.0
2014-Nov-23 20:34N 33°45' W 118°13'1 0.9
2014-Nov-23 19:29N 33°44' W 118°13'2 2.3
2014-Nov-23 18:33N 33°46' W 118°13'1 0.5
2014-Nov-23 16:33N 33°45' W 118°13'1 0.8
2014-Nov-23 15:32N 33°46' W 118°13'1 1.1
2014-Nov-23 14:33N 33°46' W 118°15'1 0.1
2014-Nov-23 05:26N 33°46' W 118°13'1 0.6
2014-Nov-23 04:32N 33°46' W 118°13'3 2.4
2014-Nov-23 03:09N 33°44' W 118°11'0 0.6
2014-Nov-23 02:27N 33°44' W 118°11'1 1.1
2014-Nov-23 01:33N 33°44' W 118°12'1 1.0
2014-Nov-23 00:34N 33°43' W 118°11'1 1.0
2014-Nov-22 23:31N 33°44' W 118°12'1 0.6
2014-Nov-22 22:33N 33°44' W 118°11'2 1.3
2014-Nov-22 21:08N 33°45' W 118°13'0 0.3
2014-Nov-22 20:32N 33°45' W 118°13'0 0.1
2014-Nov-22 19:33N 33°45' W 118°13'1 0.2
2014-Nov-22 15:33N 33°46' W 118°13'1 1.0
2014-Nov-22 14:33N 33°45' W 118°13'0 0.1
2014-Nov-22 11:24N 33°45' W 118°13'0 0.0
2014-Nov-21 21:22N 33°45' W 118°13'1 0.9
2014-Nov-21 20:33N 33°45' W 118°13'4 1.3
2014-Nov-21 17:33N 33°44' W 118°08'0 0.2
2014-Nov-21 16:28N 33°44' W 118°08'4 3.9
2014-Nov-21 15:22N 33°45' W 118°13'0 0.5
2014-Nov-21 14:33N 33°46' W 118°13'0 0.0
2014-Nov-21 04:09N 33°46' W 118°13'1 2.3
2014-Nov-21 03:32N 33°44' W 118°13'1 0.4
2014-Nov-21 00:25N 33°45' W 118°13'1 0.9
2014-Nov-20 23:17N 33°46' W 118°13'2 2.2
2014-Nov-20 22:33N 33°45' W 118°13'0 0.2
2014-Nov-20 20:33N 33°44' W 118°12'1 1.2
2014-Nov-20 19:32N 33°45' W 118°11'5 1.1
2014-Nov-20 15:32N 33°46' W 118°17'3 1.4
2014-Nov-20 13:28N 33°45' W 118°13'0 0.1
2014-Nov-20 12:33N 33°45' W 118°13'3 0.4
2014-Nov-20 06:33N 33°44' W 118°16'0 0.0
2014-Nov-20 05:16N 33°44' W 118°16'0 0.0
2014-Nov-20 03:29N 33°44' W 118°16'0 0.3
2014-Nov-20 02:33N 33°44' W 118°16'2 2.0
2014-Nov-20 01:33N 33°46' W 118°16'0 0.0
2014-Nov-20 00:32N 33°46' W 118°16'1 1.1
2014-Nov-19 23:30N 33°45' W 118°17'0 0.3
2014-Nov-19 22:33N 33°45' W 118°17'1 1.0
2014-Nov-19 21:33N 33°44' W 118°16'3 0.7
2014-Nov-19 17:33N 33°45' W 118°13'0 0.0
2014-Nov-19 16:12N 33°45' W 118°13'0 0.2
2014-Nov-19 13:31N 33°45' W 118°13'2 0.8
2014-Nov-19 10:33N 33°44' W 118°16'0 0.0
2014-Nov-19 09:33N 33°44' W 118°16'3 2.9
2014-Nov-19 08:34N 33°45' W 118°12'3 2.7
2014-Nov-19 07:31N 33°44' W 118°16'0 0.0
2014-Nov-19 06:34N 33°44' W 118°16'0 0.0
2014-Nov-19 05:23N 33°44' W 118°16'0 0.0
2014-Nov-19 04:33N 33°44' W 118°16'3 2.8
2014-Nov-19 03:32N 33°45' W 118°12'3 3.1
2014-Nov-19 02:33N 33°44' W 118°16'0 0.0
2014-Nov-19 01:33N 33°44' W 118°16'0 0.0
2014-Nov-19 00:34N 33°44' W 118°16'2 2.0
2014-Nov-18 23:34N 33°46' W 118°17'3 3.2
2014-Nov-18 22:33N 33°43' W 118°15'3 1.6
2014-Nov-18 20:28N 33°46' W 118°13'4 3.7
2014-Nov-18 19:31N 33°43' W 118°16'2 2.1
2014-Nov-18 18:33N 33°45' W 118°16'1 1.2
2014-Nov-18 17:31N 33°44' W 118°16'0 0.0
2014-Nov-18 16:33N 33°44' W 118°16'2 1.7
2014-Nov-18 15:32N 33°46' W 118°15'0 0.1
2014-Nov-18 14:23N 33°46' W 118°16'0 0.1
2014-Nov-18 13:33N 33°46' W 118°15'3 2.4
2014-Nov-18 12:18N 33°43' W 118°15'2 3.0
2014-Nov-18 11:33N 33°44' W 118°17'3 3.2
2014-Nov-18 10:33N 33°46' W 118°14'3 3.2
2014-Nov-18 09:32N 33°43' W 118°16'0 0.2
2014-Nov-18 07:18N 33°44' W 118°16'0 0.0
2014-Nov-18 06:14N 33°44' W 118°16'0 0.0
2014-Nov-18 05:33N 33°44' W 118°16'0 0.0
2014-Nov-18 04:33N 33°44' W 118°16'3 2.8
2014-Nov-18 03:33N 33°44' W 118°12'3 2.9
2014-Nov-18 02:34N 33°44' W 118°16'2 1.9
2014-Nov-18 01:32N 33°46' W 118°17'2 1.3
2014-Nov-18 00:04N 33°44' W 118°16'0 0.8
2014-Nov-17 23:33N 33°44' W 118°15'1 0.3
2014-Nov-17 21:30N 33°44' W 118°16'2 0.1
2014-Nov-16 12:05N 33°45' W 118°16'5 0.4
2014-Nov-15 23:32N 33°45' W 118°11'0 0.3
2014-Nov-15 22:11N 33°45' W 118°11'2 3.2
2014-Nov-15 21:33N 33°46' W 118°13'0 0.0
2014-Nov-15 20:33N 33°46' W 118°13'0 0.3
2014-Nov-15 19:34N 33°46' W 118°13'0 0.0
2014-Nov-15 03:33N 33°46' W 118°13'4 1.9
2014-Nov-15 01:28N 33°44' W 118°09'3 3.1
2014-Nov-15 00:33N 33°45' W 118°12'2 1.7
2014-Nov-14 23:33N 33°44' W 118°11'4 4.0
2014-Nov-14 22:32N 33°44' W 118°06'1 0.8
2014-Nov-14 21:32N 33°44' W 118°07'5 1.0
2014-Nov-14 16:31N 33°45' W 118°13'3 1.9
2014-Nov-14 15:08N 33°45' W 118°16'1 1.6
2014-Nov-14 14:33N 33°46' W 118°15'2 1.0
2014-Nov-14 12:33N 33°45' W 118°13'0 0.2
2014-Nov-14 11:34N 33°45' W 118°13'  

Dump ship's entire track history